Tara — XUAB3 — position and weather

sailwx.info

Track history (hours):
 
Tides and Currents Weather Stations Pressure Air Temp Water Temp Dewpoint Dewpoint Depression Visibility Wind Speed Wind Dir Waves Ship Positions

Tara

Last reported at 2015-Apr-29 17:28 UTC. Time now 2015-May-04 06:58 UTC.
Position N 31°23' E 030°05'.

Length 82 m; draft 6.8 m.

Type: Ship. MMSI: 515410000.

Date/timePositionNaut miles runAvg speedWind from/ knotsBaromVisibWave heightAir tempDewpointWater temp
2015-Apr-29 17:28N 31°23' E 030°05'115 7.2
2015-Apr-29 01:29N 32°39' E 031°46'50 9.6
2015-Apr-28 20:19N 33°14' E 032°28'810.0
2015-Apr-28 19:29N 33°20' E 032°35'10 9.9
2015-Apr-28 18:32N 33°27' E 032°42'10 9.8
2015-Apr-28 17:30N 33°35' E 032°51'10 9.5
2015-Apr-28 16:27N 33°42' E 032°59'8 9.1
2015-Apr-28 15:33N 33°48' E 033°06'9 8.9
2015-Apr-28 14:29N 33°54' E 033°14'8 8.9
2015-Apr-28 13:33N 34°00' E 033°21'  
Track history (hours):
 
Tides and Currents Weather Stations Pressure Air Temp Water Temp Dewpoint Dewpoint Depression Visibility Wind Speed Wind Dir Waves Ship Positions

Tara

Last reported at 2015-Apr-29 17:28 UTC. Time now 2015-May-04 06:58 UTC.
Position N 31°23' E 030°05'.

Length 82 m; draft 6.8 m.

Type: Ship. MMSI: 515410000.

Date/timePositionNaut miles runAvg speedWind from/ knotsBaromVisibWave heightAir tempDewpointWater temp
2015-Apr-29 17:28N 31°23' E 030°05'115 7.2
2015-Apr-29 01:29N 32°39' E 031°46'50 9.6
2015-Apr-28 20:19N 33°14' E 032°28'810.0
2015-Apr-28 19:29N 33°20' E 032°35'10 9.9
2015-Apr-28 18:32N 33°27' E 032°42'10 9.8
2015-Apr-28 17:30N 33°35' E 032°51'10 9.5
2015-Apr-28 16:27N 33°42' E 032°59'8 9.1
2015-Apr-28 15:33N 33°48' E 033°06'9 8.9
2015-Apr-28 14:29N 33°54' E 033°14'8 8.9
2015-Apr-28 13:33N 34°00' E 033°21'  

Dump ship's entire track history